sensor_id;sensor_type;location;lat;lon;timestamp;temperature;humidity
84916;DHT22;75178;53.054;5.846;2024-02-26T00:02:41;3.30;99.90
84916;DHT22;75178;53.054;5.846;2024-02-26T00:05:25;3.30;99.90
84916;DHT22;75178;53.054;5.846;2024-02-26T00:08:09;3.30;99.90
84916;DHT22;75178;53.054;5.846;2024-02-26T00:10:53;3.30;99.90
84916;DHT22;75178;53.054;5.846;2024-02-26T00:13:38;3.30;99.90
84916;DHT22;75178;53.054;5.846;2024-02-26T00:16:22;3.30;99.90
84916;DHT22;75178;53.054;5.846;2024-02-26T00:19:07;3.30;99.90
84916;DHT22;75178;53.054;5.846;2024-02-26T00:21:52;3.30;99.90
84916;DHT22;75178;53.054;5.846;2024-02-26T00:24:36;3.30;99.90
84916;DHT22;75178;53.054;5.846;2024-02-26T00:27:20;3.30;99.90
84916;DHT22;75178;53.054;5.846;2024-02-26T00:30:05;3.30;99.90
84916;DHT22;75178;53.054;5.846;2024-02-26T00:32:50;3.40;99.90
84916;DHT22;75178;53.054;5.846;2024-02-26T00:35:35;3.40;99.90
84916;DHT22;75178;53.054;5.846;2024-02-26T00:38:19;3.40;99.90
84916;DHT22;75178;53.054;5.846;2024-02-26T00:41:03;3.40;99.90
84916;DHT22;75178;53.054;5.846;2024-02-26T00:43:48;3.40;99.90
84916;DHT22;75178;53.054;5.846;2024-02-26T00:46:32;3.40;99.90
84916;DHT22;75178;53.054;5.846;2024-02-26T00:49:16;3.40;99.90
84916;DHT22;75178;53.054;5.846;2024-02-26T00:52:02;3.40;99.90
84916;DHT22;75178;53.054;5.846;2024-02-26T00:54:46;3.40;99.90
84916;DHT22;75178;53.054;5.846;2024-02-26T00:57:30;3.40;99.90
84916;DHT22;75178;53.054;5.846;2024-02-26T01:00:15;3.40;99.90
84916;DHT22;75178;53.054;5.846;2024-02-26T01:03:00;3.40;99.90
84916;DHT22;75178;53.054;5.846;2024-02-26T01:05:44;3.40;99.90
84916;DHT22;75178;53.054;5.846;2024-02-26T01:08:29;3.30;99.90
84916;DHT22;75178;53.054;5.846;2024-02-26T01:11:13;3.30;99.90
84916;DHT22;75178;53.054;5.846;2024-02-26T01:13:57;3.30;99.90
84916;DHT22;75178;53.054;5.846;2024-02-26T01:16:41;3.30;99.90
84916;DHT22;75178;53.054;5.846;2024-02-26T01:19:26;3.30;99.90
84916;DHT22;75178;53.054;5.846;2024-02-26T01:22:10;3.30;99.90
84916;DHT22;75178;53.054;5.846;2024-02-26T01:24:55;3.30;99.90
84916;DHT22;75178;53.054;5.846;2024-02-26T01:27:39;3.30;99.90
84916;DHT22;75178;53.054;5.846;2024-02-26T01:30:24;3.30;99.90
84916;DHT22;75178;53.054;5.846;2024-02-26T01:33:08;3.30;99.90
84916;DHT22;75178;53.054;5.846;2024-02-26T01:35:52;3.30;99.90
84916;DHT22;75178;53.054;5.846;2024-02-26T01:38:36;3.30;99.90
84916;DHT22;75178;53.054;5.846;2024-02-26T01:41:21;3.30;99.90
84916;DHT22;75178;53.054;5.846;2024-02-26T01:44:06;3.30;99.90
84916;DHT22;75178;53.054;5.846;2024-02-26T01:46:50;3.30;99.90
84916;DHT22;75178;53.054;5.846;2024-02-26T01:49:35;3.30;99.90
84916;DHT22;75178;53.054;5.846;2024-02-26T01:52:20;3.30;99.90
84916;DHT22;75178;53.054;5.846;2024-02-26T01:55:05;3.30;99.90
84916;DHT22;75178;53.054;5.846;2024-02-26T01:57:52;3.30;99.90
84916;DHT22;75178;53.054;5.846;2024-02-26T02:00:37;3.30;99.90
84916;DHT22;75178;53.054;5.846;2024-02-26T02:03:21;3.30;99.90
84916;DHT22;75178;53.054;5.846;2024-02-26T02:06:06;3.30;99.90
84916;DHT22;75178;53.054;5.846;2024-02-26T02:08:51;3.30;99.90
84916;DHT22;75178;53.054;5.846;2024-02-26T02:11:35;3.30;99.90
84916;DHT22;75178;53.054;5.846;2024-02-26T02:14:21;3.30;99.90
84916;DHT22;75178;53.054;5.846;2024-02-26T02:17:06;3.30;99.90
84916;DHT22;75178;53.054;5.846;2024-02-26T02:19:50;3.30;99.90
84916;DHT22;75178;53.054;5.846;2024-02-26T02:22:36;3.30;99.90
84916;DHT22;75178;53.054;5.846;2024-02-26T02:25:20;3.30;99.90
84916;DHT22;75178;53.054;5.846;2024-02-26T02:28:05;3.20;99.90
84916;DHT22;75178;53.054;5.846;2024-02-26T02:30:49;3.20;99.90
84916;DHT22;75178;53.054;5.846;2024-02-26T02:33:34;3.20;99.90
84916;DHT22;75178;53.054;5.846;2024-02-26T02:36:19;3.20;99.90
84916;DHT22;75178;53.054;5.846;2024-02-26T02:39:04;3.20;99.90
84916;DHT22;75178;53.054;5.846;2024-02-26T02:41:49;3.20;99.90
84916;DHT22;75178;53.054;5.846;2024-02-26T02:44:33;3.20;99.90
84916;DHT22;75178;53.054;5.846;2024-02-26T02:47:17;3.20;99.90
84916;DHT22;75178;53.054;5.846;2024-02-26T02:50:01;3.20;99.90
84916;DHT22;75178;53.054;5.846;2024-02-26T02:52:46;3.20;99.90
84916;DHT22;75178;53.054;5.846;2024-02-26T02:55:31;3.30;99.90
84916;DHT22;75178;53.054;5.846;2024-02-26T02:58:16;3.20;99.90
84916;DHT22;75178;53.054;5.846;2024-02-26T03:01:00;3.20;99.90
84916;DHT22;75178;53.054;5.846;2024-02-26T03:03:44;3.20;99.90
84916;DHT22;75178;53.054;5.846;2024-02-26T03:06:28;3.30;99.90
84916;DHT22;75178;53.054;5.846;2024-02-26T03:09:12;3.20;99.90
84916;DHT22;75178;53.054;5.846;2024-02-26T03:11:58;3.30;99.90
84916;DHT22;75178;53.054;5.846;2024-02-26T03:14:42;3.20;99.90
84916;DHT22;75178;53.054;5.846;2024-02-26T03:17:26;3.20;99.90
84916;DHT22;75178;53.054;5.846;2024-02-26T03:20:11;3.20;99.90
84916;DHT22;75178;53.054;5.846;2024-02-26T03:22:55;3.20;99.90
84916;DHT22;75178;53.054;5.846;2024-02-26T03:25:41;3.30;99.90
84916;DHT22;75178;53.054;5.846;2024-02-26T03:28:27;3.30;99.90
84916;DHT22;75178;53.054;5.846;2024-02-26T03:31:11;3.20;99.90
84916;DHT22;75178;53.054;5.846;2024-02-26T03:33:55;3.20;99.90
84916;DHT22;75178;53.054;5.846;2024-02-26T03:36:39;3.20;99.90
84916;DHT22;75178;53.054;5.846;2024-02-26T03:39:23;3.30;99.90
84916;DHT22;75178;53.054;5.846;2024-02-26T03:42:07;3.20;99.90
84916;DHT22;75178;53.054;5.846;2024-02-26T03:44:53;3.20;99.90
84916;DHT22;75178;53.054;5.846;2024-02-26T03:47:38;3.20;99.90
84916;DHT22;75178;53.054;5.846;2024-02-26T03:50:22;3.20;99.90
84916;DHT22;75178;53.054;5.846;2024-02-26T03:53:06;3.20;99.90
84916;DHT22;75178;53.054;5.846;2024-02-26T03:55:50;3.20;99.90
84916;DHT22;75178;53.054;5.846;2024-02-26T03:58:34;3.20;99.90
84916;DHT22;75178;53.054;5.846;2024-02-26T04:01:20;3.20;99.90
84916;DHT22;75178;53.054;5.846;2024-02-26T04:04:04;3.20;99.90
84916;DHT22;75178;53.054;5.846;2024-02-26T04:06:48;3.20;99.90
84916;DHT22;75178;53.054;5.846;2024-02-26T04:09:32;3.20;99.90
84916;DHT22;75178;53.054;5.846;2024-02-26T04:12:16;3.20;99.90
84916;DHT22;75178;53.054;5.846;2024-02-26T04:15:00;3.20;99.90
84916;DHT22;75178;53.054;5.846;2024-02-26T04:17:46;3.20;99.90
84916;DHT22;75178;53.054;5.846;2024-02-26T04:20:30;3.20;99.90
84916;DHT22;75178;53.054;5.846;2024-02-26T04:23:14;3.20;99.90
84916;DHT22;75178;53.054;5.846;2024-02-26T04:25:59;3.20;99.90
84916;DHT22;75178;53.054;5.846;2024-02-26T04:28:43;3.20;99.90
84916;DHT22;75178;53.054;5.846;2024-02-26T04:31:27;3.20;99.90
84916;DHT22;75178;53.054;5.846;2024-02-26T04:34:13;3.20;99.90
84916;DHT22;75178;53.054;5.846;2024-02-26T04:36:57;3.20;99.90
84916;DHT22;75178;53.054;5.846;2024-02-26T04:39:41;3.30;99.90
84916;DHT22;75178;53.054;5.846;2024-02-26T04:42:26;3.30;99.90
84916;DHT22;75178;53.054;5.846;2024-02-26T04:45:11;3.30;99.90
84916;DHT22;75178;53.054;5.846;2024-02-26T04:47:55;3.40;99.90
84916;DHT22;75178;53.054;5.846;2024-02-26T04:50:40;3.30;99.90
84916;DHT22;75178;53.054;5.846;2024-02-26T04:53:24;3.40;99.90
84916;DHT22;75178;53.054;5.846;2024-02-26T04:56:09;3.40;99.90
84916;DHT22;75178;53.054;5.846;2024-02-26T04:58:53;3.40;99.90
84916;DHT22;75178;53.054;5.846;2024-02-26T05:01:37;3.40;99.90
84916;DHT22;75178;53.054;5.846;2024-02-26T05:04:21;3.40;99.90
84916;DHT22;75178;53.054;5.846;2024-02-26T05:07:06;3.40;99.90
84916;DHT22;75178;53.054;5.846;2024-02-26T05:09:51;3.40;99.90
84916;DHT22;75178;53.054;5.846;2024-02-26T05:12:35;3.50;99.90
84916;DHT22;75178;53.054;5.846;2024-02-26T05:15:19;3.50;99.90
84916;DHT22;75178;53.054;5.846;2024-02-26T05:18:04;3.50;99.90
84916;DHT22;75178;53.054;5.846;2024-02-26T05:20:48;3.50;99.90
84916;DHT22;75178;53.054;5.846;2024-02-26T05:23:34;3.50;99.90
84916;DHT22;75178;53.054;5.846;2024-02-26T05:26:21;3.50;99.90
84916;DHT22;75178;53.054;5.846;2024-02-26T05:29:05;3.50;99.90
84916;DHT22;75178;53.054;5.846;2024-02-26T05:31:50;3.50;99.90
84916;DHT22;75178;53.054;5.846;2024-02-26T05:34:34;3.50;99.90
84916;DHT22;75178;53.054;5.846;2024-02-26T05:37:18;3.50;99.90
84916;DHT22;75178;53.054;5.846;2024-02-26T05:40:05;3.50;99.90
84916;DHT22;75178;53.054;5.846;2024-02-26T05:42:52;3.50;99.90
84916;DHT22;75178;53.054;5.846;2024-02-26T05:45:36;3.60;99.90
84916;DHT22;75178;53.054;5.846;2024-02-26T05:48:21;3.60;99.90
84916;DHT22;75178;53.054;5.846;2024-02-26T05:51:06;3.60;99.90
84916;DHT22;75178;53.054;5.846;2024-02-26T05:53:50;3.60;99.90
84916;DHT22;75178;53.054;5.846;2024-02-26T05:56:35;3.60;99.90
84916;DHT22;75178;53.054;5.846;2024-02-26T05:59:19;3.60;99.90
84916;DHT22;75178;53.054;5.846;2024-02-26T06:02:04;3.60;99.90
84916;DHT22;75178;53.054;5.846;2024-02-26T06:04:48;3.70;99.90
84916;DHT22;75178;53.054;5.846;2024-02-26T06:07:33;3.70;99.90
84916;DHT22;75178;53.054;5.846;2024-02-26T06:10:17;3.70;99.90
84916;DHT22;75178;53.054;5.846;2024-02-26T06:13:03;3.70;99.90
84916;DHT22;75178;53.054;5.846;2024-02-26T06:15:47;3.70;99.90
84916;DHT22;75178;53.054;5.846;2024-02-26T06:18:32;3.70;99.90
84916;DHT22;75178;53.054;5.846;2024-02-26T06:21:16;3.70;99.90
84916;DHT22;75178;53.054;5.846;2024-02-26T06:24:01;3.70;99.90
84916;DHT22;75178;53.054;5.846;2024-02-26T06:26:45;3.70;99.90
84916;DHT22;75178;53.054;5.846;2024-02-26T06:29:31;3.70;99.90
84916;DHT22;75178;53.054;5.846;2024-02-26T06:32:15;3.70;99.90
84916;DHT22;75178;53.054;5.846;2024-02-26T06:34:59;3.70;99.90
84916;DHT22;75178;53.054;5.846;2024-02-26T06:37:44;3.70;99.90
84916;DHT22;75178;53.054;5.846;2024-02-26T06:40:28;3.70;99.90
84916;DHT22;75178;53.054;5.846;2024-02-26T06:43:12;3.70;99.90
84916;DHT22;75178;53.054;5.846;2024-02-26T06:45:57;3.70;99.90
84916;DHT22;75178;53.054;5.846;2024-02-26T06:48:41;3.80;99.90
84916;DHT22;75178;53.054;5.846;2024-02-26T06:51:26;3.80;99.90
84916;DHT22;75178;53.054;5.846;2024-02-26T06:54:10;3.70;99.90
84916;DHT22;75178;53.054;5.846;2024-02-26T06:56:54;3.70;99.90
84916;DHT22;75178;53.054;5.846;2024-02-26T06:59:38;3.70;99.90
84916;DHT22;75178;53.054;5.846;2024-02-26T07:02:23;3.70;99.90
84916;DHT22;75178;53.054;5.846;2024-02-26T07:05:08;3.70;99.90
84916;DHT22;75178;53.054;5.846;2024-02-26T07:07:53;3.80;99.90
84916;DHT22;75178;53.054;5.846;2024-02-26T07:10:37;3.80;99.90
84916;DHT22;75178;53.054;5.846;2024-02-26T07:13:21;3.80;99.90
84916;DHT22;75178;53.054;5.846;2024-02-26T07:16:15;3.80;99.90
84916;DHT22;75178;53.054;5.846;2024-02-26T07:19:01;3.90;99.90
84916;DHT22;75178;53.054;5.846;2024-02-26T07:21:45;3.90;99.90
84916;DHT22;75178;53.054;5.846;2024-02-26T07:24:30;3.90;99.90
84916;DHT22;75178;53.054;5.846;2024-02-26T07:27:14;3.90;99.90
84916;DHT22;75178;53.054;5.846;2024-02-26T07:29:58;3.90;99.90
84916;DHT22;75178;53.054;5.846;2024-02-26T07:32:42;3.90;99.90
84916;DHT22;75178;53.054;5.846;2024-02-26T07:35:28;3.90;99.90
84916;DHT22;75178;53.054;5.846;2024-02-26T07:38:12;4.00;99.90
84916;DHT22;75178;53.054;5.846;2024-02-26T07:40:56;4.00;99.90
84916;DHT22;75178;53.054;5.846;2024-02-26T07:43:40;3.90;99.90
84916;DHT22;75178;53.054;5.846;2024-02-26T07:46:25;4.00;99.90
84916;DHT22;75178;53.054;5.846;2024-02-26T07:49:09;4.00;99.90
84916;DHT22;75178;53.054;5.846;2024-02-26T07:51:54;4.00;99.90
84916;DHT22;75178;53.054;5.846;2024-02-26T07:54:38;4.00;99.90
84916;DHT22;75178;53.054;5.846;2024-02-26T07:57:22;4.00;99.90
84916;DHT22;75178;53.054;5.846;2024-02-26T08:00:07;4.00;99.90
84916;DHT22;75178;53.054;5.846;2024-02-26T08:02:52;4.00;99.90
84916;DHT22;75178;53.054;5.846;2024-02-26T08:05:36;4.00;99.90
84916;DHT22;75178;53.054;5.846;2024-02-26T08:08:21;4.00;99.90
84916;DHT22;75178;53.054;5.846;2024-02-26T08:11:06;4.00;99.90
84916;DHT22;75178;53.054;5.846;2024-02-26T08:13:50;4.00;99.90
84916;DHT22;75178;53.054;5.846;2024-02-26T08:16:34;4.10;99.90
84916;DHT22;75178;53.054;5.846;2024-02-26T08:19:18;4.10;99.90
84916;DHT22;75178;53.054;5.846;2024-02-26T08:22:02;4.10;99.90
84916;DHT22;75178;53.054;5.846;2024-02-26T08:24:48;4.10;99.90
84916;DHT22;75178;53.054;5.846;2024-02-26T08:27:32;4.10;99.90
84916;DHT22;75178;53.054;5.846;2024-02-26T08:30:17;4.20;99.90
84916;DHT22;75178;53.054;5.846;2024-02-26T08:33:01;4.20;99.90
84916;DHT22;75178;53.054;5.846;2024-02-26T08:35:45;4.10;99.90
84916;DHT22;75178;53.054;5.846;2024-02-26T08:38:30;4.20;99.90
84916;DHT22;75178;53.054;5.846;2024-02-26T08:41:15;4.20;99.90
84916;DHT22;75178;53.054;5.846;2024-02-26T08:44:00;4.20;99.90
84916;DHT22;75178;53.054;5.846;2024-02-26T08:46:44;4.20;99.90
84916;DHT22;75178;53.054;5.846;2024-02-26T08:49:28;4.30;99.90
84916;DHT22;75178;53.054;5.846;2024-02-26T08:52:12;4.30;99.90
84916;DHT22;75178;53.054;5.846;2024-02-26T08:54:56;4.30;99.90
84916;DHT22;75178;53.054;5.846;2024-02-26T08:57:42;4.40;99.90
84916;DHT22;75178;53.054;5.846;2024-02-26T09:00:26;4.40;99.90
84916;DHT22;75178;53.054;5.846;2024-02-26T09:03:10;4.40;99.90
84916;DHT22;75178;53.054;5.846;2024-02-26T09:05:55;4.40;99.90
84916;DHT22;75178;53.054;5.846;2024-02-26T09:08:39;4.50;99.90
84916;DHT22;75178;53.054;5.846;2024-02-26T09:11:23;4.50;99.90
84916;DHT22;75178;53.054;5.846;2024-02-26T09:14:08;4.50;99.90
84916;DHT22;75178;53.054;5.846;2024-02-26T09:16:53;4.60;99.90
84916;DHT22;75178;53.054;5.846;2024-02-26T09:19:37;4.60;99.90
84916;DHT22;75178;53.054;5.846;2024-02-26T09:22:21;4.60;99.90
84916;DHT22;75178;53.054;5.846;2024-02-26T09:25:05;4.60;99.90
84916;DHT22;75178;53.054;5.846;2024-02-26T09:27:50;4.70;99.90
84916;DHT22;75178;53.054;5.846;2024-02-26T09:30:35;4.70;99.90
84916;DHT22;75178;53.054;5.846;2024-02-26T09:33:19;4.80;99.90
84916;DHT22;75178;53.054;5.846;2024-02-26T09:36:04;4.80;99.90
84916;DHT22;75178;53.054;5.846;2024-02-26T09:38:52;4.90;99.90
84916;DHT22;75178;53.054;5.846;2024-02-26T09:41:36;4.90;99.90
84916;DHT22;75178;53.054;5.846;2024-02-26T09:44:21;4.90;99.90
84916;DHT22;75178;53.054;5.846;2024-02-26T09:47:08;5.00;99.90
84916;DHT22;75178;53.054;5.846;2024-02-26T09:49:53;5.00;99.90
84916;DHT22;75178;53.054;5.846;2024-02-26T09:52:40;5.10;99.90
84916;DHT22;75178;53.054;5.846;2024-02-26T09:55:25;5.10;99.90
84916;DHT22;75178;53.054;5.846;2024-02-26T09:58:10;5.10;99.90
84916;DHT22;75178;53.054;5.846;2024-02-26T10:00:56;5.10;99.90
84916;DHT22;75178;53.054;5.846;2024-02-26T10:03:43;5.10;99.90
84916;DHT22;75178;53.054;5.846;2024-02-26T10:06:28;5.20;99.90
84916;DHT22;75178;53.054;5.846;2024-02-26T10:09:13;5.20;99.90
84916;DHT22;75178;53.054;5.846;2024-02-26T10:11:57;5.30;99.90
84916;DHT22;75178;53.054;5.846;2024-02-26T10:14:41;5.30;99.90
84916;DHT22;75178;53.054;5.846;2024-02-26T10:17:26;5.30;99.90
84916;DHT22;75178;53.054;5.846;2024-02-26T10:20:13;5.40;99.90
84916;DHT22;75178;53.054;5.846;2024-02-26T10:22:57;5.40;99.90
84916;DHT22;75178;53.054;5.846;2024-02-26T10:25:52;5.50;99.90
84916;DHT22;75178;53.054;5.846;2024-02-26T10:28:37;5.50;99.90
84916;DHT22;75178;53.054;5.846;2024-02-26T10:31:22;5.50;99.90
84916;DHT22;75178;53.054;5.846;2024-02-26T10:34:06;5.60;99.90
84916;DHT22;75178;53.054;5.846;2024-02-26T10:36:53;5.60;99.90
84916;DHT22;75178;53.054;5.846;2024-02-26T10:39:37;5.60;99.90
84916;DHT22;75178;53.054;5.846;2024-02-26T10:42:21;5.60;99.90
84916;DHT22;75178;53.054;5.846;2024-02-26T10:45:06;5.60;99.90
84916;DHT22;75178;53.054;5.846;2024-02-26T10:47:51;5.60;99.90
84916;DHT22;75178;53.054;5.846;2024-02-26T10:50:35;5.60;99.90
84916;DHT22;75178;53.054;5.846;2024-02-26T10:53:21;5.60;99.90
84916;DHT22;75178;53.054;5.846;2024-02-26T10:56:06;5.70;99.90
84916;DHT22;75178;53.054;5.846;2024-02-26T10:58:52;5.70;99.90
84916;DHT22;75178;53.054;5.846;2024-02-26T11:01:36;5.70;99.90
84916;DHT22;75178;53.054;5.846;2024-02-26T11:04:21;5.70;99.90
84916;DHT22;75178;53.054;5.846;2024-02-26T11:07:08;5.70;99.90
84916;DHT22;75178;53.054;5.846;2024-02-26T11:09:55;5.70;99.90
84916;DHT22;75178;53.054;5.846;2024-02-26T11:12:41;5.70;99.90
84916;DHT22;75178;53.054;5.846;2024-02-26T11:15:25;5.70;99.90
84916;DHT22;75178;53.054;5.846;2024-02-26T11:18:10;5.70;99.90
84916;DHT22;75178;53.054;5.846;2024-02-26T11:20:58;5.80;99.90
84916;DHT22;75178;53.054;5.846;2024-02-26T11:23:43;5.80;99.90
84916;DHT22;75178;53.054;5.846;2024-02-26T11:26:29;5.80;99.90
84916;DHT22;75178;53.054;5.846;2024-02-26T11:29:17;5.80;99.90
84916;DHT22;75178;53.054;5.846;2024-02-26T11:32:03;5.80;99.90
84916;DHT22;75178;53.054;5.846;2024-02-26T11:34:48;5.80;99.90
84916;DHT22;75178;53.054;5.846;2024-02-26T11:37:32;5.80;99.90
84916;DHT22;75178;53.054;5.846;2024-02-26T11:40:17;5.80;99.90
84916;DHT22;75178;53.054;5.846;2024-02-26T11:43:04;5.80;99.90
84916;DHT22;75178;53.054;5.846;2024-02-26T11:45:50;5.90;99.90
84916;DHT22;75178;53.054;5.846;2024-02-26T11:48:34;5.90;99.90
84916;DHT22;75178;53.054;5.846;2024-02-26T11:51:25;5.90;99.90
84916;DHT22;75178;53.054;5.846;2024-02-26T11:54:09;5.90;99.90
84916;DHT22;75178;53.054;5.846;2024-02-26T11:56:53;5.90;99.90
84916;DHT22;75178;53.054;5.846;2024-02-26T11:59:39;6.00;99.90
84916;DHT22;75178;53.054;5.846;2024-02-26T12:02:55;6.00;99.90
84916;DHT22;75178;53.054;5.846;2024-02-26T12:05:39;6.00;99.90
84916;DHT22;75178;53.054;5.846;2024-02-26T12:08:23;6.00;99.90
84916;DHT22;75178;53.054;5.846;2024-02-26T12:11:14;6.00;99.90
84916;DHT22;75178;53.054;5.846;2024-02-26T12:13:58;6.10;99.90
84916;DHT22;75178;53.054;5.846;2024-02-26T12:16:45;6.00;99.90
84916;DHT22;75178;53.054;5.846;2024-02-26T12:19:30;6.10;99.90
84916;DHT22;75178;53.054;5.846;2024-02-26T12:22:15;6.10;99.90
84916;DHT22;75178;53.054;5.846;2024-02-26T12:25:00;6.10;99.90
84916;DHT22;75178;53.054;5.846;2024-02-26T12:27:44;6.10;99.90
84916;DHT22;75178;53.054;5.846;2024-02-26T12:30:31;6.10;99.90
84916;DHT22;75178;53.054;5.846;2024-02-26T12:33:16;6.10;99.90
84916;DHT22;75178;53.054;5.846;2024-02-26T12:36:00;6.10;99.90
84916;DHT22;75178;53.054;5.846;2024-02-26T12:38:45;6.10;99.90
84916;DHT22;75178;53.054;5.846;2024-02-26T12:41:29;6.10;99.90
84916;DHT22;75178;53.054;5.846;2024-02-26T12:44:13;6.10;99.90
84916;DHT22;75178;53.054;5.846;2024-02-26T12:47:00;6.10;99.90
84916;DHT22;75178;53.054;5.846;2024-02-26T12:49:47;6.00;99.90
84916;DHT22;75178;53.054;5.846;2024-02-26T12:52:32;6.10;99.90
84916;DHT22;75178;53.054;5.846;2024-02-26T12:55:18;6.10;99.90
84916;DHT22;75178;53.054;5.846;2024-02-26T12:58:04;6.10;99.90
84916;DHT22;75178;53.054;5.846;2024-02-26T13:00:48;6.10;99.90
84916;DHT22;75178;53.054;5.846;2024-02-26T13:03:34;6.10;99.90
84916;DHT22;75178;53.054;5.846;2024-02-26T13:06:21;6.10;99.90
84916;DHT22;75178;53.054;5.846;2024-02-26T13:09:05;6.10;99.90
84916;DHT22;75178;53.054;5.846;2024-02-26T13:11:53;6.10;99.90
84916;DHT22;75178;53.054;5.846;2024-02-26T13:14:37;6.10;99.90
84916;DHT22;75178;53.054;5.846;2024-02-26T13:17:22;6.00;99.90
84916;DHT22;75178;53.054;5.846;2024-02-26T13:20:07;6.00;99.90
84916;DHT22;75178;53.054;5.846;2024-02-26T13:23:00;6.00;99.90
84916;DHT22;75178;53.054;5.846;2024-02-26T13:25:44;6.10;99.90
84916;DHT22;75178;53.054;5.846;2024-02-26T13:28:28;6.10;99.90
84916;DHT22;75178;53.054;5.846;2024-02-26T13:31:12;6.10;99.90
84916;DHT22;75178;53.054;5.846;2024-02-26T13:33:57;6.10;99.90
84916;DHT22;75178;53.054;5.846;2024-02-26T13:36:41;6.10;99.90
84916;DHT22;75178;53.054;5.846;2024-02-26T13:39:27;6.10;99.90
84916;DHT22;75178;53.054;5.846;2024-02-26T13:42:12;6.10;99.90
84916;DHT22;75178;53.054;5.846;2024-02-26T13:44:56;6.00;99.90
84916;DHT22;75178;53.054;5.846;2024-02-26T13:47:40;5.90;99.90
84916;DHT22;75178;53.054;5.846;2024-02-26T13:50:24;5.90;99.90
84916;DHT22;75178;53.054;5.846;2024-02-26T13:53:08;5.90;99.90
84916;DHT22;75178;53.054;5.846;2024-02-26T13:55:54;5.90;99.90
84916;DHT22;75178;53.054;5.846;2024-02-26T13:58:38;5.90;99.90
84916;DHT22;75178;53.054;5.846;2024-02-26T14:01:22;5.90;99.90
84916;DHT22;75178;53.054;5.846;2024-02-26T14:04:06;5.90;99.90
84916;DHT22;75178;53.054;5.846;2024-02-26T14:06:56;5.90;99.90
84916;DHT22;75178;53.054;5.846;2024-02-26T14:09:41;5.90;99.90
84916;DHT22;75178;53.054;5.846;2024-02-26T14:12:26;5.90;99.90
84916;DHT22;75178;53.054;5.846;2024-02-26T14:15:11;5.80;99.90
84916;DHT22;75178;53.054;5.846;2024-02-26T14:17:55;5.80;99.90
84916;DHT22;75178;53.054;5.846;2024-02-26T14:20:40;5.80;99.90
84916;DHT22;75178;53.054;5.846;2024-02-26T14:23:24;5.80;99.90
84916;DHT22;75178;53.054;5.846;2024-02-26T14:26:10;5.80;99.90
84916;DHT22;75178;53.054;5.846;2024-02-26T14:28:55;5.70;99.90
84916;DHT22;75178;53.054;5.846;2024-02-26T14:31:39;5.80;99.90
84916;DHT22;75178;53.054;5.846;2024-02-26T14:34:23;5.80;99.90
84916;DHT22;75178;53.054;5.846;2024-02-26T14:37:08;5.70;99.90
84916;DHT22;75178;53.054;5.846;2024-02-26T14:39:52;5.70;99.90
84916;DHT22;75178;53.054;5.846;2024-02-26T14:42:36;5.80;99.90
84916;DHT22;75178;53.054;5.846;2024-02-26T14:45:21;5.70;99.90
84916;DHT22;75178;53.054;5.846;2024-02-26T14:48:06;5.70;99.90
84916;DHT22;75178;53.054;5.846;2024-02-26T14:50:50;5.70;99.90
84916;DHT22;75178;53.054;5.846;2024-02-26T14:53:34;5.70;99.90
84916;DHT22;75178;53.054;5.846;2024-02-26T14:56:19;5.70;99.90
84916;DHT22;75178;53.054;5.846;2024-02-26T14:59:03;5.80;99.90
84916;DHT22;75178;53.054;5.846;2024-02-26T15:01:49;5.70;99.90
84916;DHT22;75178;53.054;5.846;2024-02-26T15:04:33;5.80;99.90
84916;DHT22;75178;53.054;5.846;2024-02-26T15:07:17;5.70;99.90
84916;DHT22;75178;53.054;5.846;2024-02-26T15:10:01;5.70;99.90
84916;DHT22;75178;53.054;5.846;2024-02-26T15:12:45;5.70;99.90
84916;DHT22;75178;53.054;5.846;2024-02-26T15:15:29;5.70;99.90
84916;DHT22;75178;53.054;5.846;2024-02-26T15:18:14;5.70;99.90
84916;DHT22;75178;53.054;5.846;2024-02-26T15:20:59;5.70;99.90
84916;DHT22;75178;53.054;5.846;2024-02-26T15:23:43;5.70;99.90
84916;DHT22;75178;53.054;5.846;2024-02-26T15:26:27;5.70;99.90
84916;DHT22;75178;53.054;5.846;2024-02-26T15:29:12;5.70;99.90
84916;DHT22;75178;53.054;5.846;2024-02-26T15:31:56;5.70;99.90
84916;DHT22;75178;53.054;5.846;2024-02-26T15:34:42;5.70;99.90
84916;DHT22;75178;53.054;5.846;2024-02-26T15:37:26;5.60;99.90
84916;DHT22;75178;53.054;5.846;2024-02-26T15:40:11;5.70;99.90
84916;DHT22;75178;53.054;5.846;2024-02-26T15:42:55;5.60;99.90
84916;DHT22;75178;53.054;5.846;2024-02-26T15:45:39;5.60;99.90
84916;DHT22;75178;53.054;5.846;2024-02-26T15:48:25;5.60;99.90
84916;DHT22;75178;53.054;5.846;2024-02-26T15:51:18;5.60;99.90
84916;DHT22;75178;53.054;5.846;2024-02-26T15:54:03;5.50;99.90
84916;DHT22;75178;53.054;5.846;2024-02-26T15:56:47;5.50;99.90
84916;DHT22;75178;53.054;5.846;2024-02-26T15:59:32;5.60;99.90
84916;DHT22;75178;53.054;5.846;2024-02-26T16:02:16;5.60;99.90
84916;DHT22;75178;53.054;5.846;2024-02-26T16:05:00;5.50;99.90
84916;DHT22;75178;53.054;5.846;2024-02-26T16:07:50;5.50;99.90
84916;DHT22;75178;53.054;5.846;2024-02-26T16:10:35;5.50;99.90
84916;DHT22;75178;53.054;5.846;2024-02-26T16:13:19;5.50;99.90
84916;DHT22;75178;53.054;5.846;2024-02-26T16:16:07;5.50;99.90
84916;DHT22;75178;53.054;5.846;2024-02-26T16:18:53;5.50;99.90
84916;DHT22;75178;53.054;5.846;2024-02-26T16:21:41;5.50;99.90
84916;DHT22;75178;53.054;5.846;2024-02-26T16:24:27;5.50;99.90
84916;DHT22;75178;53.054;5.846;2024-02-26T16:27:11;5.50;99.90
84916;DHT22;75178;53.054;5.846;2024-02-26T16:29:55;5.40;99.90
84916;DHT22;75178;53.054;5.846;2024-02-26T16:32:40;5.40;99.90
84916;DHT22;75178;53.054;5.846;2024-02-26T16:35:24;5.40;99.90
84916;DHT22;75178;53.054;5.846;2024-02-26T16:38:08;5.40;99.90
84916;DHT22;75178;53.054;5.846;2024-02-26T16:40:54;5.30;99.90
84916;DHT22;75178;53.054;5.846;2024-02-26T16:43:38;5.30;99.90
84916;DHT22;75178;53.054;5.846;2024-02-26T16:46:22;5.30;99.90
84916;DHT22;75178;53.054;5.846;2024-02-26T16:49:06;5.30;99.90
84916;DHT22;75178;53.054;5.846;2024-02-26T16:51:53;5.30;99.90
84916;DHT22;75178;53.054;5.846;2024-02-26T16:54:37;5.30;99.90
84916;DHT22;75178;53.054;5.846;2024-02-26T16:57:23;5.30;99.90
84916;DHT22;75178;53.054;5.846;2024-02-26T17:00:08;5.20;99.90
84916;DHT22;75178;53.054;5.846;2024-02-26T17:02:52;5.20;99.90
84916;DHT22;75178;53.054;5.846;2024-02-26T17:05:36;5.20;99.90
84916;DHT22;75178;53.054;5.846;2024-02-26T17:08:20;5.20;99.90
84916;DHT22;75178;53.054;5.846;2024-02-26T17:11:04;5.20;99.90
84916;DHT22;75178;53.054;5.846;2024-02-26T17:13:50;5.20;99.90
84916;DHT22;75178;53.054;5.846;2024-02-26T17:16:34;5.20;99.90
84916;DHT22;75178;53.054;5.846;2024-02-26T17:19:18;5.10;99.90
84916;DHT22;75178;53.054;5.846;2024-02-26T17:22:02;5.10;99.90
84916;DHT22;75178;53.054;5.846;2024-02-26T17:24:47;5.10;99.90
84916;DHT22;75178;53.054;5.846;2024-02-26T17:27:31;5.00;99.90
84916;DHT22;75178;53.054;5.846;2024-02-26T17:30:17;5.00;99.90
84916;DHT22;75178;53.054;5.846;2024-02-26T17:33:01;5.00;99.90
84916;DHT22;75178;53.054;5.846;2024-02-26T17:35:45;5.00;99.90
84916;DHT22;75178;53.054;5.846;2024-02-26T17:38:29;5.00;99.90